Fontana, California
Current Conditions -  °F | °C
As of 6:53 AM on Saturday 22 Nov 2014 (Local Time) from KONT Reporting Station
Scattered Clouds Scattered Clouds  
Wind Chill: 50°   Ceiling: Unl
Heat Index: 50°   Visibility: 10mi
Dew Point: 42°   Wind: 3mph
Humidity: 74%   Direction: 40°NE
Pressure: 30.1"   Gusts: NA
Location:  34.1°N, 117.43°W
Report Text: KONT 221453Z 04003KT 10SM SCT180 10/06 A3010 RMK AO2 SLP189 T01000056 53009
Loading
Personal Weather Stations






























Interactive Weather Map New forecast layout! Learn more

10-Day Weather Forecast

Advertisements
Track Severe Weather on mobile